Terminal Aerodrome Forecast
Issued by NWS Corpus Christi, TX

Home | Current Version | Previous Version | Text Only | Print | Product List | Glossary On
Versions: 1 2 3 4 5 6 7 8 9 10 11 12 13 14 15
000
FTUS44 KCRP 251700
TAFVCT
TAF
KVCT 251725Z 2518/2618 17014G23KT P6SM FEW300
     FM260200 16008KT P6SM SCT030 SCT250
     FM260700 16009KT P6SM BKN025
     FM261200 15007KT P6SM OVC015=

USA.gov is the U.S. government's official web portal to all federal, state and local government web resources and services.